Time;durP1;ratioP1;P1;durP2;ratioP2;P2;SDS_P1;SDS_P2;PMS_P1;PMS_P2;Temp;Humidity;BMP_temperature;BMP_pressure;BME280_temperature;BME280_humidity;BME280_pressure;Samples;Min_cycle;Max_cycle;Signal;HPM_P1;HPM_P2
2021/04/16 00:01:05;;;;;;;1.60;1.50;;;7.00;26.10;;;;;;10419361;28;20248;-74
2021/04/16 00:06:07;;;;;;;1.97;1.77;;;6.90;26.10;;;;;;10449091;28;20315;-74
2021/04/16 00:11:14;;;;;;;1.43;1.33;;;6.80;26.10;;;;;;10457626;28;20252;-75
2021/04/16 00:16:19;;;;;;;1.70;1.60;;;6.80;26.20;;;;;;10425710;28;20238;-75
2021/04/16 00:21:22;;;;;;;1.70;1.60;;;6.70;26.10;;;;;;10411377;28;20639;-73
2021/04/16 00:26:25;;;;;;;1.90;1.67;;;6.60;26.10;;;;;;10442664;28;20252;-74
2021/04/16 00:31:31;;;;;;;1.93;1.63;;;6.60;26.20;;;;;;10454187;28;20228;-75
2021/04/16 00:36:33;;;;;;;1.70;1.60;;;6.50;26.40;;;;;;10438681;28;20233;-75
2021/04/16 00:41:36;;;;;;;3.17;1.53;;;6.40;26.20;;;;;;10447659;28;20252;-75
2021/04/16 00:46:42;;;;;;;1.73;1.63;;;6.40;26.40;;;;;;10458719;28;20235;-74
2021/04/16 00:51:47;;;;;;;1.50;1.40;;;6.30;26.70;;;;;;10450090;28;20221;-74
2021/04/16 00:56:53;;;;;;;1.67;1.57;;;6.30;26.50;;;;;;10440532;28;20233;-75
2021/04/16 01:01:55;;;;;;;1.50;1.40;;;6.20;26.60;;;;;;10445487;28;20307;-75
2021/04/16 01:07:00;;;;;;;1.70;1.60;;;6.10;26.50;;;;;;10438597;28;20232;-75
2021/04/16 01:12:06;;;;;;;1.80;1.50;;;6.10;26.60;;;;;;10485827;28;20260;-75
2021/04/16 01:17:10;;;;;;;1.73;1.63;;;6.00;26.50;;;;;;10486975;28;20739;-75
2021/04/16 01:22:17;;;;;;;1.93;1.40;;;6.00;26.50;;;;;;10483220;28;20255;-75
2021/04/16 01:27:20;;;;;;;2.10;1.60;;;6.00;26.50;;;;;;10477220;28;20315;-75
2021/04/16 01:32:26;;;;;;;1.70;1.60;;;5.90;26.50;;;;;;10468713;28;20329;-75
2021/04/16 01:37:29;;;;;;;2.77;1.70;;;5.80;26.40;;;;;;10469513;28;20312;-75
2021/04/16 01:42:32;;;;;;;2.10;1.97;;;5.80;26.40;;;;;;10478782;28;20251;-75
2021/04/16 01:47:34;;;;;;;1.70;1.60;;;5.60;26.30;;;;;;10474205;28;20232;-75
2021/04/16 01:52:38;;;;;;;2.83;2.10;;;5.60;26.30;;;;;;10476989;28;20224;-75
2021/04/16 01:57:41;;;;;;;2.00;1.80;;;5.50;26.40;;;;;;10481716;28;20702;-74
2021/04/16 02:02:44;;;;;;;3.33;1.83;;;5.50;26.60;;;;;;10478478;28;20228;-75
2021/04/16 02:07:46;;;;;;;1.50;1.40;;;5.50;26.70;;;;;;10479539;28;20236;-73
2021/04/16 02:12:50;;;;;;;1.83;1.73;;;5.40;26.60;;;;;;10472790;28;20251;-74
2021/04/16 02:17:52;;;;;;;2.00;1.80;;;5.40;26.80;;;;;;10456227;28;20216;-74
2021/04/16 02:22:55;;;;;;;2.37;2.17;;;5.30;26.70;;;;;;10456151;28;20282;-73
2021/04/16 02:27:58;;;;;;;3.30;2.03;;;5.20;26.60;;;;;;10480266;28;20661;-75
2021/04/16 02:33:00;;;;;;;3.13;2.10;;;5.20;26.80;;;;;;10473531;28;20338;-75
2021/04/16 02:38:03;;;;;;;2.00;1.90;;;5.20;26.90;;;;;;10482789;28;20266;-74
2021/04/16 02:43:06;;;;;;;2.57;2.17;;;5.10;26.70;;;;;;10479796;28;20653;-75
2021/04/16 02:48:09;;;;;;;2.87;2.07;;;5.00;26.90;;;;;;10482066;28;20246;-75
2021/04/16 02:53:11;;;;;;;2.33;2.13;;;5.00;26.90;;;;;;10491163;28;20251;-75
2021/04/16 02:58:14;;;;;;;3.00;2.33;;;4.90;26.90;;;;;;10492635;28;20248;-74
2021/04/16 03:03:16;;;;;;;2.10;1.90;;;4.80;27.00;;;;;;10482792;22;20225;-71
2021/04/16 03:08:20;;;;;;;2.63;2.43;;;4.80;27.10;;;;;;10408506;28;20237;-74
2021/04/16 03:13:23;;;;;;;3.63;2.20;;;4.70;27.10;;;;;;10375481;28;20308;-74
2021/04/16 03:18:25;;;;;;;2.07;1.87;;;4.70;27.20;;;;;;10377242;28;20245;-72
2021/04/16 03:23:27;;;;;;;2.90;2.00;;;4.60;27.10;;;;;;10393331;28;20250;-72
2021/04/16 03:28:31;;;;;;;2.20;2.00;;;4.60;27.20;;;;;;10398733;28;20748;-72
2021/04/16 03:33:33;;;;;;;2.43;2.23;;;4.60;27.30;;;;;;10371417;28;20754;-72
2021/04/16 03:38:37;;;;;;;2.47;2.00;;;4.60;27.20;;;;;;10367338;28;20321;-72
2021/04/16 03:43:40;;;;;;;2.10;2.00;;;4.60;27.20;;;;;;10397701;28;20769;-72
2021/04/16 03:48:42;;;;;;;2.27;2.07;;;4.50;27.20;;;;;;10364533;28;20314;-72
2021/04/16 03:53:45;;;;;;;2.60;2.40;;;4.50;27.30;;;;;;10397639;28;20226;-72
2021/04/16 03:58:48;;;;;;;2.57;2.37;;;4.50;27.20;;;;;;10378267;28;20630;-72
2021/04/16 04:03:50;;;;;;;2.20;2.10;;;4.50;27.30;;;;;;10391578;28;20642;-72
2021/04/16 04:08:52;;;;;;;2.23;2.03;;;4.40;27.20;;;;;;10371685;28;20283;-72
2021/04/16 04:13:56;;;;;;;2.50;2.30;;;4.30;27.20;;;;;;10389307;28;20601;-72
2021/04/16 04:18:58;;;;;;;2.20;2.10;;;4.30;27.40;;;;;;10361683;28;20318;-72
2021/04/16 04:24:00;;;;;;;3.30;2.57;;;4.10;27.30;;;;;;10373888;28;20228;-72
2021/04/16 04:29:03;;;;;;;2.63;2.43;;;4.20;27.60;;;;;;10377655;28;20277;-72
2021/04/16 04:34:06;;;;;;;3.13;2.83;;;4.10;27.70;;;;;;10393156;28;20356;-72
2021/04/16 04:39:08;;;;;;;2.70;2.50;;;4.00;27.60;;;;;;10389938;28;20312;-72
2021/04/16 04:44:11;;;;;;;2.70;2.50;;;4.00;27.60;;;;;;10389313;28;20246;-72
2021/04/16 04:49:15;;;;;;;2.57;2.37;;;4.00;27.70;;;;;;10376713;28;20240;-72
2021/04/16 04:54:18;;;;;;;1.87;1.77;;;4.00;27.70;;;;;;10393542;28;20225;-72
2021/04/16 04:59:21;;;;;;;5.17;4.00;;;3.90;27.80;;;;;;10387357;28;20306;-73
2021/04/16 05:04:23;;;;;;;9.33;8.30;;;3.90;28.00;;;;;;10369495;28;20697;-72
2021/04/16 05:09:25;;;;;;;5.30;3.53;;;3.80;27.80;;;;;;10402313;28;20308;-73
2021/04/16 05:14:28;;;;;;;4.60;3.10;;;3.70;27.80;;;;;;10378800;28;20245;-73
2021/04/16 05:19:30;;;;;;;3.67;3.37;;;3.60;28.00;;;;;;10378328;28;20487;-73
2021/04/16 05:24:33;;;;;;;4.50;3.90;;;3.60;28.10;;;;;;10391050;28;20225;-72
2021/04/16 05:29:37;;;;;;;4.23;3.83;;;3.60;28.30;;;;;;10402045;28;20308;-72
2021/04/16 05:34:41;;;;;;;3.30;3.00;;;3.60;28.40;;;;;;10403620;28;20339;-72
2021/04/16 05:39:43;;;;;;;3.43;3.13;;;3.70;28.40;;;;;;10381898;28;20515;-72
2021/04/16 05:44:46;;;;;;;4.63;3.40;;;3.70;28.50;;;;;;10404381;28;20247;-73
2021/04/16 05:49:49;;;;;;;3.27;3.07;;;3.80;28.70;;;;;;10391309;28;20317;-72
2021/04/16 05:54:51;;;;;;;7.47;3.10;;;3.80;28.60;;;;;;10405964;28;20229;-73
2021/04/16 05:59:54;;;;;;;3.53;3.17;;;3.80;28.60;;;;;;10384704;28;20312;-72
2021/04/16 06:04:56;;;;;;;7.70;6.47;;;3.70;28.90;;;;;;10389441;28;20640;-73
2021/04/16 06:09:59;;;;;;;8.00;5.97;;;3.70;29.00;;;;;;10395231;28;20231;-71
2021/04/16 06:15:02;;;;;;;6.23;5.63;;;3.80;29.20;;;;;;10381820;28;20222;-73
2021/04/16 06:20:06;;;;;;;5.50;4.60;;;3.80;29.40;;;;;;10367869;28;20312;-72
2021/04/16 06:25:10;;;;;;;5.90;5.10;;;3.80;29.60;;;;;;10394118;28;20318;-74
2021/04/16 06:30:15;;;;;;;5.37;3.83;;;3.90;29.90;;;;;;10386232;28;20765;-72
2021/04/16 06:35:17;;;;;;;4.40;4.00;;;4.00;30.00;;;;;;10388585;28;20231;-74
2021/04/16 06:40:20;;;;;;;4.37;3.97;;;4.10;30.00;;;;;;10393254;28;20935;-73
2021/04/16 06:45:26;;;;;;;4.87;4.47;;;4.20;30.10;;;;;;10369485;28;20230;-72
2021/04/16 06:50:31;;;;;;;4.67;4.27;;;4.40;30.50;;;;;;10371492;28;20245;-71
2021/04/16 06:55:39;;;;;;;5.30;4.03;;;4.60;30.60;;;;;;10376531;28;20622;-71
2021/04/16 07:00:47;;;;;;;4.83;4.43;;;4.80;30.50;;;;;;10362408;28;20230;-71
2021/04/16 07:05:51;;;;;;;4.73;4.30;;;5.00;31.20;;;;;;10350491;28;20253;-71
2021/04/16 07:10:57;;;;;;;4.23;3.93;;;5.10;30.80;;;;;;10367041;28;20278;-72
2021/04/16 07:16:01;;;;;;;5.07;4.57;;;5.50;31.10;;;;;;10366470;28;20457;-72
2021/04/16 07:21:04;;;;;;;4.90;4.50;;;5.60;31.10;;;;;;10342790;28;20325;-71
2021/04/16 07:26:14;;;;;;;5.17;4.73;;;5.70;30.80;;;;;;10391355;28;20233;-72
2021/04/16 07:31:43;;;;;;;5.77;5.30;;;5.90;31.20;;;;;;10378958;28;20234;-72
2021/04/16 07:36:45;;;;;;;5.53;5.10;;;6.20;31.70;;;;;;10366119;28;20238;-72
2021/04/16 07:41:49;;;;;;;6.00;5.50;;;6.40;30.80;;;;;;10389118;28;20279;-73
2021/04/16 07:46:55;;;;;;;6.03;5.53;;;6.60;30.70;;;;;;10370279;28;20314;-72
2021/04/16 07:52:18;;;;;;;6.10;5.60;;;6.80;31.20;;;;;;10392010;28;20233;-72
2021/04/16 07:57:21;;;;;;;5.37;4.90;;;7.00;31.00;;;;;;10363475;28;20308;-70
2021/04/16 08:02:30;;;;;;;5.97;5.47;;;7.20;32.00;;;;;;10347783;28;20241;-72
2021/04/16 08:07:35;;;;;;;6.07;5.57;;;7.40;31.60;;;;;;10359272;28;20258;-72
2021/04/16 08:12:37;;;;;;;6.03;5.53;;;7.70;30.90;;;;;;10360780;28;20219;-72
2021/04/16 08:17:41;;;;;;;6.67;6.07;;;8.00;30.90;;;;;;10352827;28;20314;-72
2021/04/16 08:22:44;;;;;;;6.03;5.53;;;8.20;30.70;;;;;;10351964;28;20233;-72
2021/04/16 08:27:53;;;;;;;6.00;5.60;;;8.50;30.50;;;;;;10376384;28;20233;-72
2021/04/16 08:33:04;;;;;;;6.40;5.90;;;8.70;30.20;;;;;;10382970;28;20321;-72
2021/04/16 08:38:09;;;;;;;5.57;5.17;;;9.00;30.00;;;;;;10391927;28;20693;-73
2021/04/16 08:43:29;;;;;;;5.93;5.43;;;9.10;29.80;;;;;;10360537;28;20308;-73
2021/04/16 08:48:38;;;;;;;5.70;5.30;;;9.30;29.60;;;;;;10350188;28;20222;-73
2021/04/16 08:53:42;;;;;;;5.60;5.20;;;9.50;29.50;;;;;;10330469;28;20915;-73
2021/04/16 08:58:45;;;;;;;5.53;5.10;;;9.70;29.20;;;;;;10338766;28;20320;-73
2021/04/16 09:04:17;;;;;;;6.10;5.60;;;9.90;29.00;;;;;;10346154;28;20228;-73
2021/04/16 09:09:40;;;;;;;5.03;4.73;;;10.00;27.80;;;;;;10351242;28;20250;-73
2021/04/16 09:14:53;;;;;;;4.87;4.47;;;10.00;27.90;;;;;;10352363;28;20315;-71
2021/04/16 09:20:01;;;;;;;5.57;5.07;;;10.10;28.40;;;;;;10339865;28;20249;-71
2021/04/16 09:25:05;;;;;;;4.83;4.53;;;10.20;28.50;;;;;;10357014;28;20294;-70
2021/04/16 09:30:34;;;;;;;5.20;4.80;;;10.40;28.00;;;;;;10352217;28;20324;-72
2021/04/16 09:35:58;;;;;;;5.33;4.93;;;10.50;27.60;;;;;;10363966;28;20273;-73
2021/04/16 09:41:15;;;;;;;5.10;4.70;;;10.60;27.50;;;;;;10375859;28;20223;-72
2021/04/16 09:46:41;;;;;;;4.67;4.30;;;10.60;27.00;;;;;;10349709;28;20219;-72
2021/04/16 09:51:46;;;;;;;4.33;4.03;;;10.70;26.90;;;;;;10358897;28;20225;-71
2021/04/16 09:57:20;;;;;;;4.70;4.40;;;10.70;27.00;;;;;;10353555;28;20726;-70
2021/04/16 10:02:40;;;;;;;4.60;4.30;;;10.60;26.60;;;;;;10353487;28;20268;-72
2021/04/16 10:07:53;;;;;;;4.83;4.43;;;10.50;26.70;;;;;;10382495;28;20280;-72
2021/04/16 10:13:06;;;;;;;4.83;4.43;;;10.40;26.70;;;;;;10364111;28;20428;-72
2021/04/16 10:18:19;;;;;;;5.97;5.57;;;10.40;26.60;;;;;;10387842;28;20296;-72
2021/04/16 10:23:30;;;;;;;5.33;4.93;;;10.40;26.70;;;;;;10366026;28;20229;-72
2021/04/16 12:39:06;;;;;;;5.63;5.00;;;10.70;26.70;;;;;;10368855;28;20276;-71
2021/04/16 12:44:23;;;;;;;5.43;5.03;;;10.80;26.60;;;;;;10384655;28;20309;-69
2021/04/16 12:49:26;;;;;;;5.43;5.03;;;10.90;26.80;;;;;;10371729;28;20235;-71
2021/04/16 12:54:28;;;;;;;5.33;4.93;;;11.00;26.70;;;;;;10367637;28;20226;-71
2021/04/16 12:59:30;;;;;;;4.97;4.67;;;11.00;26.60;;;;;;10376227;28;20308;-71
2021/04/16 13:04:40;;;;;;;5.53;5.07;;;11.10;26.60;;;;;;10388206;28;20222;-71
2021/04/16 13:09:42;;;;;;;5.33;4.90;;;11.10;26.30;;;;;;10377468;28;20640;-72
2021/04/16 13:14:44;;;;;;;4.70;4.40;;;11.10;26.40;;;;;;10389389;28;20312;-72
2021/04/16 13:19:48;;;;;;;4.73;4.40;;;11.20;26.40;;;;;;10381789;28;20285;-72
2021/04/16 13:24:51;;;;;;;5.00;4.60;;;11.20;26.30;;;;;;10386176;28;20249;-72
2021/04/16 13:29:54;;;;;;;4.20;3.83;;;11.30;26.50;;;;;;10379245;28;20313;-71
2021/04/16 13:34:58;;;;;;;4.90;4.50;;;11.30;26.40;;;;;;10395822;28;20573;-71
2021/04/16 13:40:00;;;;;;;5.23;4.83;;;11.40;26.20;;;;;;10382575;28;20227;-72
2021/04/16 13:45:03;;;;;;;4.90;4.60;;;11.40;26.30;;;;;;10380104;28;20245;-71
2021/04/16 13:50:09;;;;;;;4.77;4.47;;;11.40;26.00;;;;;;10386744;28;20328;-71
2021/04/16 13:55:13;;;;;;;5.97;4.37;;;11.40;26.00;;;;;;10398546;28;20313;-71
2021/04/16 14:00:19;;;;;;;4.70;4.30;;;11.40;25.90;;;;;;10386914;28;20956;-71
2021/04/16 14:05:25;;;;;;;4.40;4.10;;;11.40;25.90;;;;;;10392450;28;20311;-72
2021/04/16 14:10:27;;;;;;;4.60;4.30;;;11.50;26.00;;;;;;10358438;28;20301;-71
2021/04/16 14:15:29;;;;;;;4.60;4.20;;;11.50;26.10;;;;;;10358948;28;20305;-72
2021/04/16 14:20:37;;;;;;;4.10;3.80;;;11.60;26.10;;;;;;10348188;28;20312;-71
2021/04/16 14:25:42;;;;;;;4.20;3.90;;;11.60;25.80;;;;;;10367002;28;20313;-71
2021/04/16 14:30:44;;;;;;;4.50;3.83;;;11.70;26.00;;;;;;10362178;28;20227;-71
2021/04/16 14:35:48;;;;;;;3.97;3.77;;;11.70;25.90;;;;;;10346669;28;20222;-71
2021/04/16 14:40:50;;;;;;;3.93;3.63;;;11.80;25.80;;;;;;10355317;28;20224;-71
2021/04/16 14:45:53;;;;;;;3.67;3.47;;;11.80;25.70;;;;;;10360884;28;20230;-71
2021/04/16 14:51:00;;;;;;;3.90;3.57;;;11.80;25.60;;;;;;10358165;28;20246;-71
2021/04/16 14:56:06;;;;;;;3.70;3.50;;;11.80;25.50;;;;;;10365914;28;20303;-72
2021/04/16 15:01:09;;;;;;;3.67;3.37;;;11.80;25.40;;;;;;10364588;28;20321;-71
2021/04/16 15:06:19;;;;;;;3.30;3.10;;;11.80;25.50;;;;;;10379710;28;20589;-72
2021/04/16 15:11:23;;;;;;;3.17;2.97;;;11.80;25.30;;;;;;10391914;28;20326;-71
2021/04/16 15:16:26;;;;;;;3.70;3.50;;;11.80;26.00;;;;;;10353772;28;20641;-71
2021/04/16 15:21:29;;;;;;;3.90;3.70;;;11.80;25.60;;;;;;10363226;28;20277;-72
2021/04/16 15:26:32;;;;;;;3.83;3.53;;;11.80;25.40;;;;;;10354407;28;20214;-71
2021/04/16 15:31:38;;;;;;;4.10;3.70;;;11.80;25.40;;;;;;10347393;28;20231;-72
2021/04/16 15:47:27;;;;;;;3.57;3.37;;;11.80;25.30;;;;;;10362422;28;20257;-72
2021/04/16 15:52:30;;;;;;;3.60;3.40;;;11.80;25.50;;;;;;10370263;28;20246;-72
2021/04/16 15:57:35;;;;;;;3.70;3.40;;;11.80;25.40;;;;;;10356131;28;20249;-72
2021/04/16 16:02:38;;;;;;;3.93;3.63;;;11.80;25.40;;;;;;10360091;28;20235;-73
2021/04/16 16:07:41;;;;;;;4.50;3.23;;;11.80;25.10;;;;;;10363702;28;20230;-73
2021/04/16 16:12:50;;;;;;;3.60;3.33;;;11.70;25.20;;;;;;10370199;28;20254;-71
2021/04/16 16:17:53;;;;;;;3.47;3.27;;;11.70;25.00;;;;;;10374790;28;20310;-71
2021/04/16 16:22:57;;;;;;;3.30;3.10;;;11.80;25.50;;;;;;10352881;28;20246;-71
2021/04/16 16:28:01;;;;;;;3.50;3.20;;;11.80;25.30;;;;;;10358584;28;20235;-71
2021/04/16 16:33:03;;;;;;;3.03;2.83;;;11.80;25.50;;;;;;10353554;28;20683;-71
2021/04/16 16:38:08;;;;;;;2.83;2.63;;;11.80;25.30;;;;;;10359847;28;20320;-71
2021/04/16 16:43:17;;;;;;;3.20;2.90;;;11.80;25.00;;;;;;10365233;28;20642;-71
2021/04/16 16:48:20;;;;;;;3.53;3.23;;;11.80;24.90;;;;;;10354891;28;20749;-71
2021/04/16 16:53:24;;;;;;;3.07;2.87;;;11.70;25.00;;;;;;10361056;28;20222;-71
2021/04/16 16:58:30;;;;;;;3.30;3.10;;;11.70;24.90;;;;;;10369560;28;20235;-71
2021/04/16 17:03:33;;;;;;;2.80;2.60;;;11.60;24.80;;;;;;10347232;28;20230;-71
2021/04/16 17:08:36;;;;;;;2.90;2.70;;;11.60;25.00;;;;;;10352990;28;20226;-72
2021/04/16 17:13:39;;;;;;;2.80;2.60;;;11.50;25.00;;;;;;10350244;28;20616;-71
2021/04/16 17:18:46;;;;;;;3.47;3.20;;;11.50;25.00;;;;;;10350505;28;20326;-71
2021/04/16 17:23:50;;;;;;;4.10;3.80;;;11.50;25.10;;;;;;10347717;28;20281;-71
2021/04/16 17:28:52;;;;;;;2.77;2.57;;;11.50;25.10;;;;;;10375331;28;20314;-72
2021/04/16 17:33:55;;;;;;;2.80;2.60;;;11.40;25.00;;;;;;10364992;28;20305;-72
2021/04/16 17:38:58;;;;;;;2.97;2.77;;;11.30;25.10;;;;;;10368061;28;20270;-71
2021/04/16 17:44:02;;;;;;;2.50;2.30;;;11.30;25.20;;;;;;10392325;28;20317;-71
2021/04/16 17:49:22;;;;;;;3.03;2.83;;;11.20;25.20;;;;;;10374156;28;20695;-71
2021/04/16 17:54:25;;;;;;;2.70;2.50;;;11.20;25.30;;;;;;10352320;28;20309;-71
2021/04/16 17:59:30;;;;;;;2.80;2.60;;;11.20;25.40;;;;;;10371298;28;20261;-71
2021/04/16 18:04:33;;;;;;;2.70;2.50;;;11.10;25.40;;;;;;10353927;28;20335;-71
2021/04/16 18:09:36;;;;;;;2.90;2.70;;;11.20;25.50;;;;;;10376809;28;20230;-71
2021/04/16 18:14:38;;;;;;;2.73;2.53;;;11.10;25.40;;;;;;10364242;28;20223;-71
2021/04/16 18:19:41;;;;;;;3.27;3.07;;;11.10;25.40;;;;;;10382204;28;20309;-71
2021/04/16 18:24:44;;;;;;;2.97;2.77;;;11.00;25.40;;;;;;10387601;28;20224;-71
2021/04/16 18:29:49;;;;;;;3.43;3.17;;;11.00;26.10;;;;;;10388186;28;20786;-71
2021/04/16 18:34:51;;;;;;;4.67;4.27;;;10.90;25.50;;;;;;10390173;28;20242;-71
2021/04/16 18:39:59;;;;;;;3.53;3.23;;;10.80;25.50;;;;;;10383118;28;20301;-71
2021/04/16 18:45:02;;;;;;;3.90;3.60;;;10.80;25.60;;;;;;10341922;28;20251;-71
2021/04/16 18:50:07;;;;;;;3.53;3.33;;;10.70;25.60;;;;;;10356183;28;20726;-71
2021/04/16 18:55:13;;;;;;;2.73;2.53;;;10.70;25.70;;;;;;10376442;28;20309;-71
2021/04/16 19:00:19;;;;;;;3.53;3.23;;;10.70;25.80;;;;;;10363421;28;20332;-72
2021/04/16 19:05:21;;;;;;;3.13;2.93;;;10.70;25.90;;;;;;10365704;28;20239;-72
2021/04/16 19:10:27;;;;;;;3.30;3.00;;;10.70;25.90;;;;;;10370748;28;20710;-72
2021/04/16 19:15:35;;;;;;;3.63;3.37;;;10.70;26.00;;;;;;10337482;28;20267;-72
2021/04/16 19:20:40;;;;;;;3.20;3.00;;;10.70;26.00;;;;;;10351843;28;20318;-72
2021/04/16 19:25:45;;;;;;;3.40;3.20;;;10.60;26.00;;;;;;10345678;28;20219;-71
2021/04/16 19:30:50;;;;;;;3.93;3.63;;;10.70;26.20;;;;;;10349024;28;20234;-71
2021/04/16 19:35:55;;;;;;;3.63;3.33;;;10.70;26.20;;;;;;10347425;28;20250;-71
2021/04/16 19:41:05;;;;;;;4.10;3.80;;;10.60;26.10;;;;;;10344752;28;20322;-71
2021/04/16 19:46:16;;;;;;;4.63;4.23;;;10.60;26.20;;;;;;10338853;28;20227;-70
2021/04/16 19:52:08;;;;;;;4.97;4.57;;;10.60;26.10;;;;;;10347432;28;20257;-70
2021/04/16 20:18:26;;;;;;;6.20;5.70;;;10.30;26.30;;;;;;10363406;28;20226;-70
2021/04/16 20:23:34;;;;;;;7.37;6.73;;;10.30;26.40;;;;;;10331109;28;20234;-70
2021/04/16 20:28:38;;;;;;;6.50;6.00;;;10.20;26.50;;;;;;10375799;28;20317;-70
2021/04/16 20:33:48;;;;;;;6.43;6.00;;;10.20;26.60;;;;;;10377793;28;20284;-70
2021/04/16 20:38:50;;;;;;;6.47;5.97;;;10.10;26.60;;;;;;10352521;28;20314;-69
2021/04/16 20:43:58;;;;;;;6.23;5.73;;;10.10;26.70;;;;;;10360807;28;20322;-69
2021/04/16 20:49:03;;;;;;;6.33;5.83;;;10.00;26.80;;;;;;10360244;28;20238;-69
2021/04/16 20:54:09;;;;;;;6.33;5.83;;;10.00;26.80;;;;;;10366814;28;20241;-70
2021/04/16 20:59:13;;;;;;;6.67;6.07;;;10.00;27.00;;;;;;10373965;28;20226;-69
2021/04/16 21:04:19;;;;;;;5.67;5.20;;;9.90;27.70;;;;;;10369980;28;20223;-69
2021/04/16 21:09:26;;;;;;;6.43;5.90;;;9.90;27.70;;;;;;10354072;28;20280;-69
2021/04/16 21:14:40;;;;;;;6.00;5.50;;;9.90;28.00;;;;;;10361200;28;20226;-69
2021/04/16 21:19:45;;;;;;;6.33;5.83;;;9.90;28.10;;;;;;10349499;28;20489;-69
2021/04/16 21:24:50;;;;;;;5.70;5.30;;;9.80;28.10;;;;;;10353654;28;20305;-69
2021/04/16 21:29:53;;;;;;;6.33;5.80;;;9.80;28.10;;;;;;10351933;28;20233;-69
2021/04/16 21:35:00;;;;;;;6.83;6.23;;;9.80;28.00;;;;;;10358338;28;20309;-69
2021/04/16 21:40:05;;;;;;;6.03;5.53;;;9.80;28.20;;;;;;10342531;28;20236;-69
2021/04/16 21:45:21;;;;;;;6.30;5.80;;;9.80;28.70;;;;;;10344586;28;20321;-72
2021/04/16 21:50:29;;;;;;;6.20;5.70;;;9.70;28.50;;;;;;10354325;28;20281;-72
2021/04/16 21:55:31;;;;;;;6.43;5.83;;;9.70;28.50;;;;;;10347051;28;20247;-72
2021/04/16 22:00:40;;;;;;;6.40;5.90;;;9.70;28.10;;;;;;10359302;28;20329;-72
2021/04/16 22:05:50;;;;;;;7.00;6.40;;;9.70;28.70;;;;;;10345474;28;20313;-72
2021/04/16 22:11:01;;;;;;;7.33;6.73;;;9.60;28.80;;;;;;10360393;28;20312;-72
2021/04/16 22:16:13;;;;;;;7.10;6.50;;;9.60;28.80;;;;;;10400666;22;20227;-67
2021/04/16 22:21:48;;;;;;;6.87;6.37;;;9.60;28.80;;;;;;10469848;28;20319;-72
2021/04/16 22:26:51;;;;;;;7.60;7.00;;;9.60;28.80;;;;;;10469157;28;20220;-72
2021/04/16 22:31:55;;;;;;;7.07;6.50;;;9.60;28.70;;;;;;10483894;28;20295;-72
2021/04/16 22:36:59;;;;;;;7.75;7.05;;;9.60;28.80;;;;;;10477131;28;20250;-72
2021/04/16 22:42:05;;;;;;;8.40;7.70;;;9.50;28.70;;;;;;10480227;28;20224;-71
2021/04/16 22:47:25;;;;;;;9.00;8.20;;;9.50;28.70;;;;;;10465710;28;20232;-72
2021/04/16 22:52:31;;;;;;;9.13;8.33;;;9.40;28.90;;;;;;10473507;28;20243;-72
2021/04/16 22:57:38;;;;;;;9.20;8.40;;;9.40;28.70;;;;;;10474700;28;20282;-72
2021/04/16 23:02:45;;;;;;;8.63;7.90;;;9.30;28.60;;;;;;10477573;28;20696;-73
2021/04/16 23:07:48;;;;;;;8.50;7.80;;;9.20;28.60;;;;;;10462067;28;20231;-72
2021/04/16 23:12:51;;;;;;;7.23;6.53;;;9.20;28.50;;;;;;10470367;28;20746;-72
2021/04/16 23:17:54;;;;;;;9.00;8.10;;;9.20;28.60;;;;;;10481582;28;20277;-72
2021/04/16 23:23:00;;;;;;;8.07;7.13;;;9.20;28.50;;;;;;10474866;28;20521;-72
2021/04/16 23:28:14;;;;;;;8.07;7.37;;;9.20;28.70;;;;;;10468759;28;20252;-72
2021/04/16 23:33:53;;;;;;;8.53;7.83;;;9.20;29.30;;;;;;10466727;28;20232;-72
2021/04/16 23:38:56;;;;;;;8.43;7.70;;;9.20;29.30;;;;;;10470860;28;20308;-72
2021/04/16 23:43:59;;;;;;;8.53;7.83;;;9.20;28.70;;;;;;10469253;28;20760;-72
2021/04/16 23:49:02;;;;;;;8.20;7.50;;;9.20;28.60;;;;;;10468621;28;20225;-71
2021/04/16 23:54:05;;;;;;;7.70;7.03;;;9.20;28.80;;;;;;10463995;28;20339;-67
2021/04/16 23:59:08;;;;;;;9.10;8.30;;;9.20;28.90;;;;;;10472635;28;20228;-67
